createdAt,value
2022-11-21T00:01:08.109Z,86.12
2022-11-21T00:03:34.381Z,86.85
2022-11-21T00:06:00.618Z,86.58
2022-11-21T00:08:26.866Z,90.55
2022-11-21T00:10:53.173Z,91.67
2022-11-21T00:13:19.467Z,92.07
2022-11-21T00:15:45.708Z,92.38
2022-11-21T00:18:12.828Z,92.23
2022-11-21T00:20:39.115Z,92.53
2022-11-21T00:23:05.578Z,92.01
2022-11-21T00:25:31.866Z,93.23
2022-11-21T00:27:58.469Z,92.13
2022-11-21T00:30:24.715Z,92.15
2022-11-21T00:32:50.971Z,92.55
2022-11-21T00:35:17.295Z,92.62
2022-11-21T00:37:43.587Z,92.32
2022-11-21T00:40:09.806Z,92.55
2022-11-21T00:42:40.123Z,92.45
2022-11-21T00:45:06.444Z,91.58
2022-11-21T00:47:32.689Z,92.24
2022-11-21T00:49:58.976Z,91.28
2022-11-21T00:52:25.241Z,91.66
2022-11-21T00:54:51.447Z,92.48
2022-11-21T00:57:17.716Z,92.16
2022-11-21T00:59:43.954Z,92.96
2022-11-21T01:02:10.688Z,92.49
2022-11-21T01:04:36.946Z,92.67
2022-11-21T01:07:03.291Z,92.58
2022-11-21T01:09:29.623Z,91.74
2022-11-21T01:11:55.879Z,91.81
2022-11-21T01:14:22.163Z,92.15
2022-11-21T01:16:48.470Z,92.40
2022-11-21T01:19:14.742Z,92.32
2022-11-21T01:21:41.029Z,93.02
2022-11-21T01:24:07.379Z,92.71
2022-11-21T01:26:34.008Z,91.75
2022-11-21T01:29:00.284Z,92.69
2022-11-21T01:31:26.558Z,92.06
2022-11-21T01:33:52.868Z,91.97
2022-11-21T01:36:19.176Z,92.16
2022-11-21T01:38:45.572Z,91.84
2022-11-21T01:41:11.781Z,91.58
2022-11-21T01:43:38.290Z,91.93
2022-11-21T01:46:04.657Z,92.11
2022-11-21T01:48:30.948Z,91.96
2022-11-21T01:50:57.173Z,90.78
2022-11-21T01:53:23.444Z,89.88
2022-11-21T01:55:49.683Z,90.93
2022-11-21T01:58:15.926Z,91.42
2022-11-21T02:00:42.219Z,92.48
2022-11-21T02:03:08.459Z,92.04
2022-11-21T02:05:34.739Z,92.30
2022-11-21T02:08:00.963Z,93.37
2022-11-21T02:10:27.221Z,91.98
2022-11-21T02:12:53.651Z,93.19
2022-11-21T02:15:19.890Z,94.15
2022-11-21T02:17:46.150Z,93.96
2022-11-21T02:20:12.369Z,93.98
2022-11-21T02:22:38.596Z,93.80
2022-11-21T02:25:04.977Z,94.14
2022-11-21T02:27:31.216Z,94.41
2022-11-21T02:29:57.485Z,93.62
2022-11-21T02:32:23.784Z,92.90
2022-11-21T02:34:49.997Z,92.51
2022-11-21T02:37:16.254Z,93.04
2022-11-21T02:39:42.510Z,92.86
2022-11-21T02:42:08.749Z,92.73
2022-11-21T02:44:35.011Z,92.27
2022-11-21T02:47:01.278Z,93.60
2022-11-21T02:49:27.514Z,93.33
2022-11-21T02:51:53.834Z,93.27
2022-11-21T02:54:20.056Z,92.52
2022-11-21T02:56:46.303Z,93.19
2022-11-21T02:59:12.544Z,93.60
2022-11-21T03:01:42.037Z,93.52
2022-11-21T03:04:08.268Z,93.45
2022-11-21T03:06:34.566Z,92.97
2022-11-21T03:09:00.782Z,93.23
2022-11-21T03:11:26.997Z,93.68
2022-11-21T03:13:53.199Z,94.01
2022-11-21T03:16:19.441Z,93.76
2022-11-21T03:18:45.680Z,93.71
2022-11-21T03:21:11.924Z,94.19
2022-11-21T03:23:38.215Z,93.67
2022-11-21T03:26:04.430Z,93.50
2022-11-21T03:28:30.654Z,93.50
2022-11-21T03:30:56.877Z,94.61
2022-11-21T03:33:23.084Z,94.32
2022-11-21T03:35:49.299Z,90.55
2022-11-21T03:38:15.512Z,94.52
2022-11-21T03:40:41.758Z,93.64
2022-11-21T03:43:08.235Z,94.73
2022-11-21T03:45:34.496Z,94.85
2022-11-21T03:48:00.726Z,95.01
2022-11-21T03:50:26.966Z,94.38
2022-11-21T03:52:53.170Z,94.64
2022-11-21T03:55:19.592Z,94.39
2022-11-21T03:57:45.852Z,94.78
2022-11-21T04:00:12.068Z,94.84
2022-11-21T04:02:38.295Z,94.68
2022-11-21T04:05:04.507Z,94.82
2022-11-21T04:07:30.775Z,94.65
2022-11-21T04:09:57.029Z,94.99
2022-11-21T04:12:23.256Z,94.43
2022-11-21T04:14:49.527Z,92.45
2022-11-21T04:17:15.746Z,90.61
2022-11-21T04:19:42.018Z,90.63
2022-11-21T04:22:08.236Z,90.63
2022-11-21T04:24:34.532Z,91.03
2022-11-21T04:27:00.754Z,90.23
2022-11-21T04:29:29.342Z,90.57
2022-11-21T04:31:55.566Z,90.70
2022-11-21T04:34:21.833Z,91.04
2022-11-21T04:36:48.089Z,93.18
2022-11-21T04:39:14.371Z,93.59
2022-11-21T04:41:40.584Z,94.33
2022-11-21T04:44:06.848Z,94.59
2022-11-21T04:46:33.081Z,94.59
2022-11-21T04:48:59.352Z,94.80
2022-11-21T04:51:25.564Z,94.53
2022-11-21T04:53:51.847Z,94.54
2022-11-21T04:56:18.097Z,94.53
2022-11-21T04:58:44.919Z,94.93
2022-11-21T05:01:11.267Z,94.90
2022-11-21T05:03:37.657Z,94.59
2022-11-21T05:06:03.877Z,94.59
2022-11-21T05:08:30.100Z,93.07
2022-11-21T05:11:15.545Z,93.76
2022-11-21T05:13:41.880Z,94.37
2022-11-21T05:16:08.146Z,94.21
2022-11-21T05:18:34.460Z,94.47
2022-11-21T05:21:00.709Z,94.40
2022-11-21T05:23:26.996Z,94.13
2022-11-21T05:25:53.275Z,94.15
2022-11-21T05:28:19.773Z,94.91
2022-11-21T05:30:46.008Z,94.24
2022-11-21T05:33:12.303Z,93.95
2022-11-21T05:35:43.573Z,93.60
2022-11-21T05:38:10.186Z,93.77
2022-11-21T05:40:36.585Z,93.85
2022-11-21T05:43:27.982Z,94.14
2022-11-21T05:45:58.321Z,95.09
2022-11-21T05:48:24.563Z,94.62
2022-11-21T05:50:50.831Z,94.84
2022-11-21T05:53:17.190Z,94.27
2022-11-21T05:55:43.449Z,94.74
2022-11-21T05:58:10.863Z,94.06
2022-11-21T06:00:37.208Z,93.18
2022-11-21T06:03:32.398Z,93.82
2022-11-21T06:05:58.685Z,94.99
2022-11-21T06:08:24.922Z,93.50
2022-11-21T06:10:51.143Z,93.05
2022-11-21T06:13:23.452Z,94.19
2022-11-21T06:15:49.670Z,93.80
2022-11-21T06:18:15.902Z,94.17
2022-11-21T06:20:42.136Z,93.64
2022-11-21T06:23:08.385Z,94.66
2022-11-21T06:25:34.603Z,93.63
2022-11-21T06:28:01.006Z,95.09
2022-11-21T06:30:27.248Z,95.30
2022-11-21T06:32:53.609Z,94.43
2022-11-21T06:35:20.020Z,95.08
2022-11-21T06:37:50.740Z,94.76
2022-11-21T06:40:19.533Z,94.76
2022-11-21T06:42:45.832Z,94.42
2022-11-21T06:45:12.121Z,94.66
2022-11-21T06:47:38.373Z,94.85
2022-11-21T06:50:04.701Z,94.68
2022-11-21T06:52:30.912Z,94.60
2022-11-21T06:54:57.190Z,94.18
2022-11-21T06:57:23.429Z,94.24
2022-11-21T06:59:49.665Z,93.99
2022-11-21T07:02:15.931Z,94.09
2022-11-21T07:04:42.219Z,94.04
2022-11-21T07:07:08.464Z,93.99
2022-11-21T07:09:37.931Z,94.38
2022-11-21T07:12:23.025Z,93.75
2022-11-21T07:14:49.342Z,94.02
2022-11-21T07:17:15.846Z,94.74
2022-11-21T07:19:42.160Z,94.46
2022-11-21T07:22:08.549Z,94.55
2022-11-21T07:24:35.157Z,94.56
2022-11-21T07:27:01.384Z,93.92
2022-11-21T07:29:27.967Z,93.81
2022-11-21T07:31:54.300Z,94.03
2022-11-21T07:34:20.521Z,94.15
2022-11-21T07:36:48.600Z,94.07
2022-11-21T07:39:14.891Z,93.65
2022-11-21T07:41:41.127Z,93.21
2022-11-21T07:44:07.388Z,93.30
2022-11-21T07:46:35.575Z,93.11
2022-11-21T07:49:03.587Z,94.09
2022-11-21T07:51:30.186Z,94.34
2022-11-21T07:53:56.464Z,93.29
2022-11-21T07:56:26.401Z,92.80
2022-11-21T07:58:52.764Z,93.17
2022-11-21T08:01:19.117Z,93.08
2022-11-21T08:03:45.386Z,92.77
2022-11-21T08:06:12.158Z,92.92
2022-11-21T08:08:38.377Z,92.77
2022-11-21T08:11:04.735Z,93.66
2022-11-21T08:13:30.954Z,93.06
2022-11-21T08:15:57.179Z,92.28
2022-11-21T08:18:23.388Z,92.94
2022-11-21T08:20:49.634Z,93.29
2022-11-21T08:23:15.897Z,92.76
2022-11-21T08:25:45.127Z,92.70
2022-11-21T08:28:11.359Z,92.44
2022-11-21T08:30:37.845Z,92.10
2022-11-21T08:33:04.066Z,92.15
2022-11-21T08:35:30.284Z,92.37
2022-11-21T08:37:57.021Z,93.23
2022-11-21T08:40:23.372Z,91.90
2022-11-21T08:42:49.623Z,92.16
2022-11-21T08:45:15.879Z,92.10
2022-11-21T08:47:42.094Z,92.01
2022-11-21T08:50:12.096Z,91.73
2022-11-21T08:52:38.411Z,91.76
2022-11-21T08:55:04.704Z,92.48
2022-11-21T08:57:31.675Z,92.46
2022-11-21T08:59:57.873Z,92.04
2022-11-21T09:02:24.072Z,91.24
2022-11-21T09:04:50.577Z,92.18
2022-11-21T09:07:16.835Z,91.49
2022-11-21T09:09:43.255Z,91.75
2022-11-21T09:12:09.492Z,91.47
2022-11-21T09:14:54.656Z,91.08
2022-11-21T09:17:39.424Z,91.13
2022-11-21T09:20:05.804Z,90.06
2022-11-21T09:22:32.056Z,91.96
2022-11-21T09:24:58.325Z,92.02
2022-11-21T09:27:24.629Z,91.70
2022-11-21T09:29:54.088Z,91.43
2022-11-21T09:32:20.650Z,90.30
2022-11-21T09:34:46.869Z,90.94
2022-11-21T09:37:16.791Z,91.13
2022-11-21T09:39:42.996Z,90.96
2022-11-21T09:42:09.268Z,91.50
2022-11-21T09:44:35.507Z,91.41
2022-11-21T09:47:01.724Z,91.21
2022-11-21T09:49:28.186Z,91.33
2022-11-21T09:51:54.651Z,90.95
2022-11-21T09:54:20.898Z,90.26
2022-11-21T09:56:47.401Z,90.60
2022-11-21T09:59:13.656Z,90.47
2022-11-21T10:01:39.892Z,90.93
2022-11-21T10:04:06.170Z,90.61
2022-11-21T10:06:32.719Z,91.88
2022-11-21T10:08:59.111Z,91.56
2022-11-21T10:11:25.493Z,91.93
2022-11-21T10:13:51.702Z,90.86
2022-11-21T10:16:17.940Z,91.13
2022-11-21T10:18:44.137Z,91.24
2022-11-21T10:21:10.379Z,90.35
2022-11-21T10:23:36.684Z,91.38
2022-11-21T10:26:04.836Z,90.55
2022-11-21T10:28:31.087Z,90.68
2022-11-21T10:30:57.321Z,91.33
2022-11-21T10:33:23.602Z,90.98
2022-11-21T10:35:49.823Z,91.33
2022-11-21T10:38:16.112Z,90.65
2022-11-21T10:40:42.323Z,91.40
2022-11-21T10:43:27.440Z,90.33
2022-11-21T10:45:53.724Z,90.99
2022-11-21T10:48:19.937Z,90.56
2022-11-21T10:50:46.392Z,89.65
2022-11-21T10:53:31.447Z,90.49
2022-11-21T10:55:57.720Z,90.73
2022-11-21T10:58:23.952Z,90.56
2022-11-21T11:00:50.258Z,90.74
2022-11-21T11:03:16.567Z,90.69
2022-11-21T11:05:43.816Z,90.62
2022-11-21T11:08:10.054Z,90.66
2022-11-21T11:10:36.330Z,89.60
2022-11-21T11:13:45.200Z,89.80
2022-11-21T11:16:07.363Z,88.66
2022-11-21T11:18:34.338Z,89.69
2022-11-21T11:21:00.565Z,88.29
2022-11-21T11:23:26.954Z,88.81
2022-11-21T11:25:53.371Z,88.17
2022-11-21T11:28:20.020Z,88.65
2022-11-21T11:30:47.017Z,88.70
2022-11-21T11:33:13.328Z,88.15
2022-11-21T11:35:40.415Z,87.95
2022-11-21T11:38:06.922Z,88.03
2022-11-21T11:40:33.325Z,87.50
2022-11-21T11:43:18.397Z,87.12
2022-11-21T11:46:03.334Z,86.75
2022-11-21T11:48:29.612Z,85.67
2022-11-21T11:50:55.886Z,86.02
2022-11-21T11:53:22.183Z,85.80
2022-11-21T11:55:48.633Z,86.24
2022-11-21T11:58:14.873Z,87.13
2022-11-21T12:00:44.955Z,86.20
2022-11-21T12:03:11.146Z,85.59
2022-11-21T12:05:37.435Z,86.53
2022-11-21T12:08:40.335Z,85.83
2022-11-21T12:11:08.904Z,86.20
2022-11-21T12:13:35.120Z,86.66
2022-11-21T12:16:07.149Z,87.23
2022-11-21T12:18:38.155Z,87.30
2022-11-21T12:21:04.400Z,87.54
2022-11-21T12:23:32.182Z,87.26
2022-11-21T12:25:58.505Z,87.35
2022-11-21T12:28:24.748Z,87.40
2022-11-21T12:30:51.101Z,87.08
2022-11-21T12:33:17.337Z,88.35
2022-11-21T12:35:43.601Z,88.79
2022-11-21T12:38:09.974Z,88.95
2022-11-21T12:40:36.253Z,88.88
2022-11-21T12:43:04.460Z,89.15
2022-11-21T12:45:31.673Z,89.04
2022-11-21T12:48:17.063Z,90.34
2022-11-21T12:51:01.800Z,90.19
2022-11-21T12:53:46.967Z,89.79
2022-11-21T12:56:13.235Z,89.31
2022-11-21T12:58:39.454Z,89.72
2022-11-21T13:01:05.891Z,89.63
2022-11-21T13:03:33.359Z,89.79
2022-11-21T13:05:59.728Z,90.26
2022-11-21T13:08:26.018Z,90.22
2022-11-21T13:10:52.403Z,90.13
2022-11-21T13:13:18.643Z,90.29
2022-11-21T13:15:44.936Z,89.87
2022-11-21T13:18:11.193Z,88.92
2022-11-21T13:20:37.392Z,89.90
2022-11-21T13:23:06.552Z,89.50
2022-11-21T13:25:32.894Z,89.27
2022-11-21T13:27:59.824Z,90.09
2022-11-21T13:30:26.086Z,89.55
2022-11-21T13:32:52.549Z,89.58
2022-11-21T13:35:19.343Z,89.51
2022-11-21T13:37:47.069Z,89.44
2022-11-21T13:40:13.472Z,89.65
2022-11-21T13:43:18.052Z,89.57
2022-11-21T13:45:45.009Z,89.68
2022-11-21T13:48:11.379Z,89.58
2022-11-21T13:50:37.582Z,90.55
2022-11-21T13:53:03.790Z,90.22
2022-11-21T13:55:30.231Z,90.62
2022-11-21T13:57:57.544Z,89.88
2022-11-21T14:00:23.813Z,90.30
2022-11-21T14:02:50.066Z,90.48
2022-11-21T14:05:16.824Z,89.54
2022-11-21T14:07:43.268Z,90.60
2022-11-21T14:10:09.588Z,90.21
2022-11-21T14:12:41.072Z,90.28
2022-11-21T14:15:10.484Z,90.44
2022-11-21T14:17:36.919Z,90.71
2022-11-21T14:20:03.251Z,91.25
2022-11-21T14:22:34.777Z,91.32
2022-11-21T14:25:02.436Z,92.06
2022-11-21T14:27:28.693Z,91.89
2022-11-21T14:29:55.017Z,92.02
2022-11-21T14:32:21.222Z,91.27
2022-11-21T14:34:47.429Z,91.77
2022-11-21T14:37:14.001Z,91.76
2022-11-21T14:39:44.099Z,91.90
2022-11-21T14:42:11.305Z,91.29
2022-11-21T14:44:37.701Z,91.13
2022-11-21T14:47:03.963Z,91.71
2022-11-21T14:49:32.699Z,92.43
2022-11-21T14:51:59.861Z,92.05
2022-11-21T14:54:26.822Z,91.81
2022-11-21T14:56:53.741Z,91.79
2022-11-21T14:59:22.980Z,92.61
2022-11-21T15:01:49.341Z,92.47
2022-11-21T15:04:15.670Z,92.43
2022-11-21T15:06:41.868Z,92.35
2022-11-21T15:10:25.137Z,92.75
2022-11-21T15:11:54.544Z,92.41
2022-11-21T15:14:20.801Z,91.40
2022-11-21T15:16:47.230Z,92.03
2022-11-21T15:19:13.726Z,92.91
2022-11-21T15:21:39.963Z,91.80
2022-11-21T15:24:06.238Z,91.95
2022-11-21T15:26:32.514Z,92.97
2022-11-21T15:28:58.809Z,92.69
2022-11-21T15:31:25.013Z,91.76
2022-11-21T15:34:06.407Z,92.45
2022-11-21T15:36:37.469Z,92.59
2022-11-21T15:39:05.378Z,92.74
2022-11-21T15:41:31.706Z,92.25
2022-11-21T15:43:57.941Z,92.35
2022-11-21T15:46:24.265Z,92.96
2022-11-21T15:48:50.633Z,93.71
2022-11-21T15:51:20.359Z,93.11
2022-11-21T15:53:49.905Z,93.32
2022-11-21T15:56:21.470Z,92.79
2022-11-21T15:58:49.127Z,93.47
2022-11-21T16:01:15.490Z,94.41
2022-11-21T16:03:41.998Z,94.19
2022-11-21T16:06:09.343Z,93.98
2022-11-21T16:08:35.641Z,93.00
2022-11-21T16:11:01.928Z,93.52
2022-11-21T16:13:28.174Z,94.36
2022-11-21T16:15:54.389Z,94.02
2022-11-21T16:18:22.498Z,93.76
2022-11-21T16:20:48.781Z,93.84
2022-11-21T16:23:15.040Z,94.65
2022-11-21T16:25:42.835Z,93.68
2022-11-21T16:28:09.109Z,94.22
2022-11-21T16:30:35.421Z,94.10
2022-11-21T16:33:01.700Z,93.61
2022-11-21T16:35:27.926Z,93.77
2022-11-21T16:37:54.181Z,94.25
2022-11-21T16:40:20.420Z,94.16
2022-11-21T16:42:47.010Z,93.20
2022-11-21T16:45:13.322Z,93.11
2022-11-21T16:47:42.028Z,92.96
2022-11-21T16:50:12.239Z,92.86
2022-11-21T16:52:38.466Z,92.12
2022-11-21T16:55:04.763Z,92.83
2022-11-21T16:57:31.021Z,92.58
2022-11-21T16:59:59.147Z,92.73
2022-11-21T17:02:25.581Z,92.07
2022-11-21T17:04:52.255Z,92.19
2022-11-21T17:07:18.493Z,92.25
2022-11-21T17:09:44.801Z,92.95
2022-11-21T17:12:11.189Z,93.77
2022-11-21T17:14:37.441Z,93.51
2022-11-21T17:17:03.669Z,93.06
2022-11-21T17:19:30.160Z,93.42
2022-11-21T17:21:56.880Z,93.11
2022-11-21T17:24:23.182Z,93.06
2022-11-21T17:26:49.409Z,92.66
2022-11-21T17:29:15.630Z,92.88
2022-11-21T17:31:42.981Z,92.62
2022-11-21T17:34:09.257Z,92.66
2022-11-21T17:36:35.508Z,93.23
2022-11-21T17:39:01.811Z,93.11
2022-11-21T17:41:28.040Z,93.44
2022-11-21T17:43:54.315Z,92.91
2022-11-21T17:46:20.536Z,91.87
2022-11-21T17:48:52.999Z,91.89
2022-11-21T17:51:22.171Z,90.53
2022-11-21T17:53:48.462Z,90.38
2022-11-21T17:56:14.894Z,89.06
2022-11-21T17:58:41.092Z,89.87
2022-11-21T18:01:07.517Z,88.80
2022-11-21T18:03:33.912Z,89.08
2022-11-21T18:06:00.541Z,88.63
2022-11-21T18:08:26.803Z,89.37
2022-11-21T18:10:54.032Z,89.65
2022-11-21T18:13:20.244Z,89.06
2022-11-21T18:15:47.987Z,88.10
2022-11-21T18:18:14.473Z,88.99
2022-11-21T18:20:40.715Z,88.61
2022-11-21T18:23:07.164Z,89.03
2022-11-21T18:25:33.395Z,88.69
2022-11-21T18:27:59.639Z,88.66
2022-11-21T18:30:26.160Z,87.99
2022-11-21T18:32:52.427Z,88.00
2022-11-21T18:35:18.713Z,87.63
2022-11-21T18:37:45.019Z,87.36
2022-11-21T18:40:11.569Z,87.61
2022-11-21T18:42:37.810Z,88.06
2022-11-21T18:45:04.100Z,88.50
2022-11-21T18:47:30.434Z,88.79
2022-11-21T18:49:56.735Z,89.49
2022-11-21T18:52:23.376Z,89.76
2022-11-21T18:54:49.714Z,90.82
2022-11-21T18:57:16.018Z,89.47
2022-11-21T18:59:42.648Z,88.25
2022-11-21T19:02:10.400Z,90.55
2022-11-21T19:04:36.671Z,89.36
2022-11-21T19:07:03.148Z,89.51
2022-11-21T19:09:32.475Z,89.48
2022-11-21T19:11:59.144Z,89.64
2022-11-21T19:14:25.373Z,89.61
2022-11-21T19:16:51.640Z,89.46
2022-11-21T19:19:46.604Z,89.04
2022-11-21T19:22:06.778Z,88.67
2022-11-21T19:24:33.478Z,88.98
2022-11-21T19:27:01.780Z,89.31
2022-11-21T19:29:29.585Z,89.45
2022-11-21T19:31:56.175Z,88.93
2022-11-21T19:34:24.474Z,88.71
2022-11-21T19:36:50.827Z,89.50
2022-11-21T19:39:18.004Z,90.32
2022-11-21T19:41:44.484Z,90.27
2022-11-21T19:44:11.593Z,89.21
2022-11-21T19:46:38.301Z,90.38
2022-11-21T19:49:04.645Z,89.69
2022-11-21T19:51:34.628Z,89.91
2022-11-21T19:54:00.853Z,89.64
2022-11-21T19:56:27.146Z,89.81
2022-11-21T19:58:53.486Z,89.50
2022-11-21T20:01:22.654Z,89.27
2022-11-21T20:03:49.965Z,89.14
2022-11-21T20:06:16.326Z,89.05
2022-11-21T20:08:42.825Z,88.47
2022-11-21T20:11:12.291Z,88.19
2022-11-21T20:13:38.669Z,88.12
2022-11-21T20:16:04.959Z,87.65
2022-11-21T20:21:21.388Z,88.18
2022-11-21T20:23:47.831Z,89.08
2022-11-21T20:26:15.098Z,88.79
2022-11-21T20:28:41.422Z,88.52
2022-11-21T20:31:10.290Z,88.81
2022-11-21T20:33:40.909Z,89.24
2022-11-21T20:36:07.234Z,88.24
2022-11-21T20:38:34.604Z,88.02
2022-11-21T20:41:00.958Z,88.40
2022-11-21T20:43:52.675Z,87.78
2022-11-21T20:46:19.966Z,88.00
2022-11-21T20:48:46.847Z,88.81
2022-11-21T20:54:03.396Z,88.14
2022-11-21T20:56:30.313Z,88.22
2022-11-21T20:58:56.618Z,88.52
2022-11-21T21:01:25.899Z,88.04
2022-11-21T21:03:52.237Z,88.17
2022-11-21T21:06:20.851Z,88.67
2022-11-21T21:08:47.372Z,87.66
2022-11-21T21:11:36.665Z,86.85
2022-11-21T21:14:00.094Z,87.75
2022-11-21T21:16:26.568Z,86.90
2022-11-21T21:18:53.568Z,87.42
2022-11-21T21:21:19.832Z,88.39
2022-11-21T21:23:46.098Z,88.99
2022-11-21T21:26:12.417Z,89.18
2022-11-21T21:28:38.850Z,88.97
2022-11-21T21:31:05.112Z,89.39
2022-11-21T21:33:31.354Z,88.64
2022-11-21T21:35:57.660Z,88.50
2022-11-21T21:38:23.895Z,88.86
2022-11-21T21:40:50.375Z,88.54
2022-11-21T21:43:16.646Z,88.40
2022-11-21T21:45:42.924Z,88.59
2022-11-21T21:48:09.286Z,88.76
2022-11-21T21:50:35.602Z,88.65
2022-11-21T21:53:01.963Z,88.62
2022-11-21T21:55:28.304Z,88.39
2022-11-21T21:57:54.719Z,88.11
2022-11-21T22:00:21.102Z,88.29
2022-11-21T22:02:47.519Z,87.92
2022-11-21T22:05:13.790Z,87.35
2022-11-21T22:07:40.222Z,87.38
2022-11-21T22:10:06.574Z,87.63
2022-11-21T22:12:34.231Z,87.25
2022-11-21T22:15:00.562Z,87.22
2022-11-21T22:17:26.837Z,87.40
2022-11-21T22:19:53.290Z,87.85
2022-11-21T22:22:19.572Z,88.31
2022-11-21T22:24:45.855Z,87.74
2022-11-21T22:27:16.561Z,88.53
2022-11-21T22:29:42.858Z,88.51
2022-11-21T22:32:09.162Z,88.28
2022-11-21T22:34:35.486Z,88.88
2022-11-21T22:37:01.848Z,87.73
2022-11-21T22:39:28.236Z,87.84
2022-11-21T22:41:59.535Z,87.36
2022-11-21T22:44:26.172Z,87.47
2022-11-21T22:46:52.495Z,88.17
2022-11-21T22:49:18.825Z,88.42
2022-11-21T22:51:45.115Z,89.01
2022-11-21T22:54:11.375Z,89.17
2022-11-21T22:56:37.645Z,89.84
2022-11-21T22:59:03.976Z,90.24
2022-11-21T23:01:30.415Z,90.31
2022-11-21T23:03:56.760Z,90.77
2022-11-21T23:06:23.586Z,90.05
2022-11-21T23:08:50.117Z,89.71
2022-11-21T23:11:16.404Z,89.80
2022-11-21T23:13:42.780Z,90.11
2022-11-21T23:16:09.049Z,90.72
2022-11-21T23:18:35.349Z,90.09
2022-11-21T23:21:01.555Z,90.25
2022-11-21T23:23:27.769Z,89.86
2022-11-21T23:25:54.003Z,91.00
2022-11-21T23:28:20.245Z,90.47
2022-11-21T23:30:46.499Z,90.46
2022-11-21T23:33:12.744Z,89.93
2022-11-21T23:35:38.966Z,89.56
2022-11-21T23:38:05.195Z,89.21
2022-11-21T23:40:31.450Z,88.74
2022-11-21T23:42:57.670Z,89.45
2022-11-21T23:45:23.911Z,88.88
2022-11-21T23:47:50.134Z,88.94
2022-11-21T23:50:16.559Z,88.58
2022-11-21T23:52:42.784Z,88.69
2022-11-21T23:55:09.011Z,88.72
2022-11-21T23:57:35.234Z,88.85
